Capitol Logistics 975


FAOR
O.R. Tambo International Airport
Johannesburg, ZA
HKJK
Jomo Kenyatta International Airport
Nairobi, KE

Activity Log

Date Flight Route Aircraft Duration
03/19/2020 CPX975 EGME1D EGMEN GWV UA405 VMV UR409 USUBI UM315 LOSIN LOSI3A B763 3h 50m

Route Details

Aircraft Information
Primary: Boeing 767-300BDSF
Backup: Not Available
Route Data
Distance: 1566nm
Sched. Duration: 3h 50m
Avg. Duration: 3h 50m (-0m)
Times Flown: 1
Recm'd Route: Not Available
Planned Altitude: 35,000ft
Origin Wx: FAOR 060830Z VRB03KT CAVOK 15/05 Q1032 NOSIG
Dest. Wx: HKJK 060800Z 19006KT 9999 FEW022 23/14 Q1026 NOSIG
Notes:

Financial History
Total Freight: 89,565lbs
Average Load: 89,565lbs/flt
Fuel Used: 39,600lbs
Avg. Fuel Used: 39,600lbs/flt
Fuel Expense: $37,620
Avg. Fuel Expense: $37,620
Avg. Fuel Cost: $0.95/lbs
Total Gross Income: $879,528
Pilot Pay: $239
Total Expenses: $95,041
Total Revenue: $745,798
Average Revenue: $879,528.31